KBUF/BUF METAR and TAF weather

Enter ICAO airport designator
Station Type Date Time Source
KBUF METAR 2020/03/29 10:54 UTC NOAA

KBUF 291054Z 10006KT 10SM FEW010 FEW060 BKN080 OVC140 12/11 A2966 RMK AO2 RAE0956 SLP046 P0000 T01170106


Station Type Date Time Source
KBUF Decoded METAR 2020/03/29 10:54 UTC NOAA

GREATER BUFFALO INTERNATIONAL AIRPORT , NY, United States (KBUF) 42-56N 078-44W 225M
Mar 29, 2020 - 06:54 AM EDT / 2020.03.29 1054 UTC
Wind: from the E (100 degrees) at 7 MPH (6 KT):0
Visibility: 10 mile(s):0
Sky conditions: overcast
Precipitation last hour: A trace
Temperature: 53.1 F (11.7 C)
Dew Point: 51.1 F (10.6 C)
Relative Humidity: 92%
Pressure (altimeter): 29.66 in. Hg (1004 hPa)
ob: KBUF 291054Z 10006KT 10SM FEW010 FEW060 BKN080 OVC140 12/11 A2966 RMK AO2 RAE0956 SLP046 P0000 T01170106
cycle: 11

Station Type Date Time Source
KBUF TAF 2020/03/29 09:18 UTC NOAA

TAF
AMD KBUF 290915Z 2909/3006 10005KT P6SM -RA OVC011
FM291400 12011KT 4SM SHRA OVC030 WS020/23045KT
FM291600 23016G28KT 6SM -SHRA OVC030
FM292000 23013G25KT 6SM BR VCSH BKN050
FM300000 25019G34KT P6SM BKN050

Example: see airport list